• Join FlightAware (Why Join?)
  • Login
  • US Flag 
09:01AM EDT


 

Airport Tracker/Info


-or-


 

Live Flight TrackerFlight Track Log ✈ EGF4174 ✈ 29-Apr-2013 ✈ KSYR - KORD

Flight Track Log - Related Links

Times and Time Zones

All times are in EDT time to prevent confusion due to time zone crossing. See the EGF4174 flight status page for this flight to view local times or setup timezone preferences in your user account.

Time Position Orientation Groundspeed Altitude Reporting Facility
EDT Latitude Longitude Course Direction KTS MPH feet Rate Location/Type
05:01PM 43.1092 -76.0836 286° West 163 188 1,200  Level Boston Center
05:03PM 43.1397 -76.0369 48° Northeast 218 251 3,100 1,740 Climbing Boston Center
05:04PM 43.1897 -76.4397 324° Northwest  Level FlightAware Approximate
05:05PM 43.2080 -76.5559 281° West  Level FlightAware Approximate
05:05PM 43.1561 -76.2369 276° West 236 272 7,600  Level Cleveland Center
05:06PM 43.2296 -76.6766 286° West  Level FlightAware Approximate
05:06PM 43.1533 -76.3369 268° West 256 295 9,600  Level Cleveland Center
05:07PM 43.2552 -76.7961 286° West  Level FlightAware Approximate
05:07PM 43.1511 -76.4450 268° West 271 312 11,200  Level Cleveland Center
05:08PM 43.1511 -76.5619 270° West 292 336 12,500 1,320 Climbing Cleveland Center
05:09PM 43.1511 -76.6814 270° West 312 359 13,900 1,440 Climbing Cleveland Center
05:10PM 43.1489 -76.8097 269° West 325 374 15,400 1,500 Climbing Cleveland Center
05:11PM 43.1489 -76.9350 270° West 332 382 16,900 1,440 Climbing Cleveland Center
05:12PM 43.1467 -77.0631 269° West 332 382 18,300 1,440 Climbing Cleveland Center
05:13PM 43.1461 -77.1883 270° West 332 382 19,800 1,440 Climbing Cleveland Center
05:14PM 43.1456 -77.3164 270° West 332 382 21,200 1,440 Climbing Cleveland Center
05:15PM 43.1431 -77.4503 269° West 344 396 22,700 1,500 Climbing Cleveland Center
05:16PM 43.1403 -77.5786 268° West 349 402 24,200 1,500 Climbing Cleveland Center
05:17PM 43.1394 -77.7094 270° West 349 402 25,700 1,320 Climbing Cleveland Center
05:18PM 43.1383 -77.8406 269° West 349 402 26,900 1,200 Climbing Cleveland Center
05:19PM 43.1353 -77.9717 268° West 349 402 28,100 1,200 Climbing Cleveland Center
05:20PM 43.1339 -78.0997 269° West 349 402 29,300 1,140 Climbing Cleveland Center
05:21PM 43.1303 -78.2306 268° West 349 402 30,400 1,080 Climbing Cleveland Center
05:22PM 43.1286 -78.3617 269° West 349 402 31,500 1,080 Climbing Cleveland Center
05:23PM 43.1272 -78.4981 269° West 349 402 32,600 1,080 Climbing Cleveland Center
05:24PM 43.1231 -78.6292 268° West 349 402 33,700 1,020 Climbing Cleveland Center
05:25PM 43.1211 -78.7600 269° West 349 402 34,700 900 Climbing Cleveland Center
05:26PM 43.1189 -78.8939 269° West 349 402 35,600 600 Climbing Cleveland Center
05:27PM 43.1144 -79.0247 267° West 349 402 36,000 180 Climbing Cleveland Center
05:28PM 43.1100 -79.1669 268° West 354 407 36,000  Level Cleveland Center
05:29PM 43.1075 -79.3092 269° West 366 421 36,000  Level Cleveland Center
05:30PM 43.0833 -79.4667 258° West 400 460 36,000  Level Toronto Center
05:31PM 43.0833 -79.6167 270° West 400 460 36,000  Level Toronto Center
05:32PM 43.0833 -79.7667 270° West 400 460 36,000  Level Toronto Center
05:33PM 43.0833 -79.9333 270° West 400 460 36,000  Level Toronto Center
05:34PM 43.0667 -80.0833 261° West 410 472 36,000  Level Toronto Center
05:35PM 43.0667 -80.2500 268° West 410 472 36,000  Level Toronto Center
05:36PM 43.0615 -80.2676 268° West  Level FlightAware Approximate
05:36PM 43.0667 -80.3833 270° West 410 472 36,000  Level Toronto Center
05:37PM 43.0500 -80.5500 262° West 410 472 36,000  Level Toronto Center
05:38PM 43.0500 -80.7000 270° West 410 472 36,000  Level Toronto Center
05:39PM 43.0333 -80.8667 262° West 410 472 36,000  Level Toronto Center
05:40PM 43.0167 -81.0000 260° West 410 472 36,000  Level Toronto Center
05:41PM 43.0167 -81.1667 270° West 400 460 36,000 -60 Level Toronto Center
05:43PM 43.0167 -81.4500 270° West 390 449 35,900 -420 Descending Toronto Center
05:44PM 43.0167 -81.6000 270° West 390 449 34,900 -960 Descending Toronto Center
05:45PM 43.0500 -81.7500 287° West 390 449 34,000 -480 Descending Toronto Center
05:46PM 43.1167 -81.8667 308° West 400 460 34,000  Level Toronto Center
05:47PM 43.1167 -82.0333 270° West 400 460 34,000  Level Toronto Center
05:48PM 43.1167 -82.1667 270° West 400 460 34,000  Level Toronto Center
05:49PM 43.1000 -82.3333 262° West 400 460 34,000  Level Toronto Center
05:50PM 43.0833 -82.4833 261° West 400 460 34,000  Level Toronto Center
05:51PM 43.0833 -82.6167 270° West 400 460 34,000  Level Toronto Center
05:52PM 43.0500 -82.7833 255° West 400 460 34,000  Level Toronto Center
05:53PM 43.0333 -82.9333 261° West 400 460 34,000  Level Toronto Center
05:54PM 43.0350 -83.1028 271° West 406 467 34,000 -300 Level Cleveland Center
05:55PM 43.0194 -83.2439 261° West 406 467 33,400 -840 Descending Cleveland Center
05:56PM 42.9850 -83.3786 251° West 396 456 32,400 -720 Descending Cleveland Center
05:57PM 42.9008 -83.4883 224° Southwest 371 427 32,000 -240 Descending Cleveland Center
05:58PM 42.8094 -83.5578 209° Southwest 378 435 32,000  Level Cleveland Center
05:59PM 42.7931 -83.7014 261° West 377 434 32,000  Level Cleveland Center
06:00PM 42.8097 -83.8522 279° West 372 428 32,000  Level Cleveland Center
06:01PM 42.8264 -84.0031 279° West 390 449 32,000  Level Cleveland Center
06:02PM 42.8403 -84.1569 277° West 403 464 32,000  Level Cleveland Center
06:03PM 42.8436 -84.3156 272° West 415 478 32,000  Level Cleveland Center
06:04PM 42.8367 -84.4653 266° West 410 472 32,000  Level Cleveland Center
06:05PM 42.8294 -84.6178 266° West 405 466 32,000  Level Cleveland Center
06:06PM 42.8247 -84.7425 267° West 404 465 32,000  Level Chicago Center
06:07PM 42.8158 -84.9225 266° West 399 459 32,000  Level Chicago Center
06:08PM 42.8089 -85.0747 266° West 402 463 32,000  Level Chicago Center
06:09PM 42.8008 -85.2297 266° West 408 470 32,000  Level Chicago Center
06:10PM 42.7925 -85.3836 266° West 409 471 32,000  Level Chicago Center
06:11PM 42.7803 -85.5344 264° West 404 465 32,000 -720 Level Chicago Center
06:12PM 42.7525 -85.6864 256° West 410 472 30,600 -2,220 Descending Chicago Center
06:13PM 42.7256 -85.8372 256° West 408 470 27,500 -3,240 Descending Chicago Center
06:14PM 42.6922 -86.0167 256° West 405 466 24,000 -3,300 Descending Chicago Center
06:15PM 42.6681 -86.1578 257° West 388 447 20,800 -1,980 Descending Chicago Center
06:17PM 42.6428 -86.2911 256° West 368 423 20,000 -600 Descending Chicago Center
06:18PM 42.6164 -86.4253 255° West 366 421 19,600 -1,380 Descending Chicago Center
06:19PM 42.5919 -86.5589 256° West 365 420 17,200 -2,340 Descending Chicago Center
06:20PM 42.5683 -86.6850 256° West 349 402 14,800 -1,800 Descending Chicago Center
06:21PM 42.5375 -86.8150 252° West 303 349 13,500 -1,260 Descending Chicago Center
06:22PM 42.5111 -86.9086 249° West 271 312 12,300 -720 Descending Chicago Center
06:23PM 42.4858 -87.0053 251° West 273 314 12,100 -660 Descending Chicago Center
06:24PM 42.4583 -87.0992 248° West 269 310 11,000 -1,020 Descending Chicago Center
06:25PM 42.4328 -87.1908 249° West 263 303 10,000 -1,020 Descending Chicago Center
06:26PM 42.4072 -87.2825 249° West 263 303 9,000 -1,020 Descending Chicago Center
06:27PM 42.3717 -87.3889 246° West 261 300 7,900 -960 Descending Chicago Center
06:28PM 42.3408 -87.4775 245° Southwest 260 299 7,100 -480 Descending Chicago Center
06:29PM 42.3025 -87.5647 239° Southwest 259 298 7,000 -120 Descending Chicago Center
06:30PM 42.2431 -87.6219 215° Southwest 263 303 6,900 -540 Descending Chicago Center
06:31PM 42.1964 -87.6789 222° Southwest 229 264 5,900 -1,140 Descending Chicago Center
06:32PM 42.1503 -87.7267 218° Southwest 212 244 4,600 -1,380 Descending Chicago Center
06:33PM 42.1000 -87.7833 220° Southwest 212 244 3,300 -1,440 Descending Chicago TRACON